sensor_id;sensor_type;location;lat;lon;timestamp;pressure;altitude;pressure_sealevel;temperature;humidity
5053;BME280;2545;50.892;5.740;2023-03-18T00:01:32;56204.25;;;-142.21;73.19
5053;BME280;2545;50.892;5.740;2023-03-18T00:03:58;56194.44;;;-142.21;72.85
5053;BME280;2545;50.892;5.740;2023-03-18T00:06:23;56186.59;;;-142.21;72.24
5053;BME280;2545;50.892;5.740;2023-03-18T00:08:49;56245.44;;;-142.21;72.12
5053;BME280;2545;50.892;5.740;2023-03-18T00:11:16;56198.38;;;-142.21;72.12
5053;BME280;2545;50.892;5.740;2023-03-18T00:13:42;56200.34;;;-142.21;72.61
5053;BME280;2545;50.892;5.740;2023-03-18T00:16:10;56200.34;;;-142.21;79.17
5053;BME280;2545;50.892;5.740;2023-03-18T00:18:36;56225.81;;;-142.21;83.35
5053;BME280;2545;50.892;5.740;2023-03-18T00:21:02;56198.38;;;-142.21;88.27
5053;BME280;2545;50.892;5.740;2023-03-18T00:23:28;56227.78;;;-142.21;92.67
5053;BME280;2545;50.892;5.740;2023-03-18T00:25:55;56182.69;;;-142.21;96.27
5053;BME280;2545;50.892;5.740;2023-03-18T00:28:24;56178.75;;;-142.21;97.78
5053;BME280;2545;50.892;5.740;2023-03-18T00:30:50;56200.34;;;-142.21;96.90
5053;BME280;2545;50.892;5.740;2023-03-18T00:33:16;56190.53;;;-142.21;96.82
5053;BME280;2545;50.892;5.740;2023-03-18T00:35:42;56200.34;;;-142.21;97.05
5053;BME280;2545;50.892;5.740;2023-03-18T00:38:09;56223.84;;;-142.21;98.45
5053;BME280;2545;50.892;5.740;2023-03-18T00:40:39;56239.56;;;-142.21;100.00
5053;BME280;2545;50.892;5.740;2023-03-18T00:43:18;56206.22;;;-142.21;100.00
5053;BME280;2545;50.892;5.740;2023-03-18T00:45:47;56212.09;;;-142.21;100.00
5053;BME280;2545;50.892;5.740;2023-03-18T00:48:14;56241.50;;;-142.21;100.00
5053;BME280;2545;50.892;5.740;2023-03-18T00:50:40;56210.13;;;-142.21;100.00
5053;BME280;2545;50.892;5.740;2023-03-18T00:53:05;56239.56;;;-142.21;100.00
5053;BME280;2545;50.892;5.740;2023-03-18T00:55:31;56217.97;;;-142.21;100.00
5053;BME280;2545;50.892;5.740;2023-03-18T00:57:56;56253.28;;;-142.21;100.00
5053;BME280;2545;50.892;5.740;2023-03-18T01:00:22;56239.56;;;-142.21;100.00
5053;BME280;2545;50.892;5.740;2023-03-18T01:02:47;56243.47;;;-142.21;100.00
5053;BME280;2545;50.892;5.740;2023-03-18T01:05:14;56235.63;;;-142.21;100.00
5053;BME280;2545;50.892;5.740;2023-03-18T01:07:40;56243.47;;;-142.21;100.00
5053;BME280;2545;50.892;5.740;2023-03-18T01:10:06;56241.50;;;-142.21;100.00
5053;BME280;2545;50.892;5.740;2023-03-18T01:12:32;56210.13;;;-142.21;100.00
5053;BME280;2545;50.892;5.740;2023-03-18T01:14:57;56210.13;;;-142.21;100.00
5053;BME280;2545;50.892;5.740;2023-03-18T01:17:23;56241.50;;;-142.21;100.00
5053;BME280;2545;50.892;5.740;2023-03-18T01:19:50;56204.25;;;-142.21;100.00
5053;BME280;2545;50.892;5.740;2023-03-18T01:22:15;56249.34;;;-142.21;100.00
5053;BME280;2545;50.892;5.740;2023-03-18T01:24:40;56182.69;;;-142.21;100.00
5053;BME280;2545;50.892;5.740;2023-03-18T01:27:06;56237.59;;;-142.21;100.00
5053;BME280;2545;50.892;5.740;2023-03-18T01:29:32;56194.44;;;-142.21;100.00
5053;BME280;2545;50.892;5.740;2023-03-18T01:31:58;56253.28;;;-142.21;100.00
5053;BME280;2545;50.892;5.740;2023-03-18T01:34:24;56251.31;;;-142.21;100.00
5053;BME280;2545;50.892;5.740;2023-03-18T01:36:50;56231.72;;;-142.21;100.00
5053;BME280;2545;50.892;5.740;2023-03-18T01:39:15;56237.59;;;-142.21;100.00
5053;BME280;2545;50.892;5.740;2023-03-18T01:41:42;56210.13;;;-142.21;100.00
5053;BME280;2545;50.892;5.740;2023-03-18T01:44:13;56227.78;;;-142.21;100.00
5053;BME280;2545;50.892;5.740;2023-03-18T01:46:44;56241.50;;;-142.21;100.00
5053;BME280;2545;50.892;5.740;2023-03-18T01:49:14;56237.59;;;-142.21;100.00
5053;BME280;2545;50.892;5.740;2023-03-18T01:52:04;56237.59;;;-142.21;100.00
5053;BME280;2545;50.892;5.740;2023-03-18T01:54:34;56267.00;;;-142.21;100.00
5053;BME280;2545;50.892;5.740;2023-03-18T01:57:00;56253.28;;;-142.21;100.00
5053;BME280;2545;50.892;5.740;2023-03-18T01:59:28;56261.13;;;-142.21;100.00
5053;BME280;2545;50.892;5.740;2023-03-18T02:02:02;56245.44;;;-142.21;100.00
5053;BME280;2545;50.892;5.740;2023-03-18T02:04:33;56210.13;;;-142.21;100.00
5053;BME280;2545;50.892;5.740;2023-03-18T02:07:00;56245.44;;;-142.21;100.00
5053;BME280;2545;50.892;5.740;2023-03-18T02:09:27;56268.97;;;-142.21;100.00
5053;BME280;2545;50.892;5.740;2023-03-18T02:11:53;56216.00;;;-142.21;100.00
5053;BME280;2545;50.892;5.740;2023-03-18T02:14:22;56241.50;;;-142.21;100.00
5053;BME280;2545;50.892;5.740;2023-03-18T02:17:02;56255.22;;;-142.21;100.00
5053;BME280;2545;50.892;5.740;2023-03-18T02:22:32;56247.38;;;-142.21;100.00
5053;BME280;2545;50.892;5.740;2023-03-18T02:27:56;56255.22;;;-142.21;100.00
5053;BME280;2545;50.892;5.740;2023-03-18T02:30:27;56229.75;;;-142.21;100.00
5053;BME280;2545;50.892;5.740;2023-03-18T02:32:57;56249.34;;;-142.21;100.00
5053;BME280;2545;50.892;5.740;2023-03-18T02:35:24;56237.59;;;-142.21;100.00
5053;BME280;2545;50.892;5.740;2023-03-18T02:37:50;56247.38;;;-142.21;100.00
5053;BME280;2545;50.892;5.740;2023-03-18T02:40:20;56202.28;;;-142.21;100.00
5053;BME280;2545;50.892;5.740;2023-03-18T02:42:46;56229.75;;;-142.21;100.00
5053;BME280;2545;50.892;5.740;2023-03-18T02:47:51;56217.97;;;-142.21;100.00
5053;BME280;2545;50.892;5.740;2023-03-18T02:50:17;56233.66;;;-142.21;100.00
5053;BME280;2545;50.892;5.740;2023-03-18T02:52:42;56249.34;;;-142.21;100.00
5053;BME280;2545;50.892;5.740;2023-03-18T02:55:08;56251.31;;;-142.21;100.00
5053;BME280;2545;50.892;5.740;2023-03-18T02:57:33;56235.63;;;-142.21;100.00
5053;BME280;2545;50.892;5.740;2023-03-18T02:59:58;56241.50;;;-142.21;100.00
5053;BME280;2545;50.892;5.740;2023-03-18T03:02:24;56206.22;;;-142.21;100.00
5053;BME280;2545;50.892;5.740;2023-03-18T03:04:49;56239.56;;;-142.21;100.00
5053;BME280;2545;50.892;5.740;2023-03-18T03:07:15;56229.75;;;-142.21;100.00
5053;BME280;2545;50.892;5.740;2023-03-18T03:09:41;56251.31;;;-142.21;100.00
5053;BME280;2545;50.892;5.740;2023-03-18T03:12:07;56206.22;;;-142.21;100.00
5053;BME280;2545;50.892;5.740;2023-03-18T03:14:33;56243.47;;;-142.21;100.00
5053;BME280;2545;50.892;5.740;2023-03-18T03:16:58;56249.34;;;-142.21;100.00
5053;BME280;2545;50.892;5.740;2023-03-18T03:19:24;56219.94;;;-142.21;100.00
5053;BME280;2545;50.892;5.740;2023-03-18T03:21:50;56265.03;;;-142.21;100.00
5053;BME280;2545;50.892;5.740;2023-03-18T03:24:15;56237.59;;;-142.21;100.00
5053;BME280;2545;50.892;5.740;2023-03-18T03:26:40;56249.34;;;-142.21;100.00
5053;BME280;2545;50.892;5.740;2023-03-18T03:29:06;56217.97;;;-142.21;100.00
5053;BME280;2545;50.892;5.740;2023-03-18T03:31:32;56243.47;;;-142.21;100.00
5053;BME280;2545;50.892;5.740;2023-03-18T03:33:58;56284.66;;;-142.21;100.00
5053;BME280;2545;50.892;5.740;2023-03-18T03:36:24;56257.19;;;-142.21;100.00
5053;BME280;2545;50.892;5.740;2023-03-18T03:38:49;56219.94;;;-142.21;100.00
5053;BME280;2545;50.892;5.740;2023-03-18T03:41:15;56263.06;;;-142.21;100.00
5053;BME280;2545;50.892;5.740;2023-03-18T03:43:41;56200.34;;;-142.21;100.00
5053;BME280;2545;50.892;5.740;2023-03-18T03:46:08;56200.34;;;-142.21;100.00
5053;BME280;2545;50.892;5.740;2023-03-18T03:48:34;56190.53;;;-142.21;100.00
5053;BME280;2545;50.892;5.740;2023-03-18T03:51:01;56243.47;;;-142.21;100.00
5053;BME280;2545;50.892;5.740;2023-03-18T03:53:26;56261.13;;;-142.21;100.00
5053;BME280;2545;50.892;5.740;2023-03-18T03:55:52;56216.00;;;-142.21;100.00
5053;BME280;2545;50.892;5.740;2023-03-18T03:58:19;56229.75;;;-142.21;100.00
5053;BME280;2545;50.892;5.740;2023-03-18T04:00:44;56237.59;;;-142.21;100.00
5053;BME280;2545;50.892;5.740;2023-03-18T04:03:09;56247.38;;;-142.21;100.00
5053;BME280;2545;50.892;5.740;2023-03-18T04:05:35;56233.66;;;-142.21;100.00
5053;BME280;2545;50.892;5.740;2023-03-18T04:08:01;56259.16;;;-142.21;100.00
5053;BME280;2545;50.892;5.740;2023-03-18T04:10:27;56255.22;;;-142.21;100.00
5053;BME280;2545;50.892;5.740;2023-03-18T04:12:53;56208.16;;;-142.21;100.00
5053;BME280;2545;50.892;5.740;2023-03-18T04:15:19;56210.13;;;-142.21;100.00
5053;BME280;2545;50.892;5.740;2023-03-18T04:17:47;56245.44;;;-142.21;100.00
5053;BME280;2545;50.892;5.740;2023-03-18T04:20:13;56233.66;;;-142.21;100.00
5053;BME280;2545;50.892;5.740;2023-03-18T04:22:39;56239.56;;;-142.21;100.00
5053;BME280;2545;50.892;5.740;2023-03-18T04:25:06;56206.22;;;-142.21;100.00
5053;BME280;2545;50.892;5.740;2023-03-18T04:27:32;56253.28;;;-142.21;100.00
5053;BME280;2545;50.892;5.740;2023-03-18T04:29:58;56237.59;;;-142.21;100.00
5053;BME280;2545;50.892;5.740;2023-03-18T04:32:24;56257.19;;;-142.21;100.00
5053;BME280;2545;50.892;5.740;2023-03-18T04:34:50;56208.16;;;-142.21;100.00
5053;BME280;2545;50.892;5.740;2023-03-18T04:37:15;56237.59;;;-142.21;100.00
5053;BME280;2545;50.892;5.740;2023-03-18T04:39:45;56237.59;;;-142.21;100.00
5053;BME280;2545;50.892;5.740;2023-03-18T04:42:10;56249.34;;;-142.21;100.00
5053;BME280;2545;50.892;5.740;2023-03-18T04:44:37;56221.91;;;-142.21;100.00
5053;BME280;2545;50.892;5.740;2023-03-18T04:47:02;56263.06;;;-142.21;100.00
5053;BME280;2545;50.892;5.740;2023-03-18T04:49:27;56253.28;;;-142.21;100.00
5053;BME280;2545;50.892;5.740;2023-03-18T04:51:53;56225.81;;;-142.21;100.00
5053;BME280;2545;50.892;5.740;2023-03-18T04:54:18;56219.94;;;-142.21;100.00
5053;BME280;2545;50.892;5.740;2023-03-18T04:56:44;56229.75;;;-142.21;100.00
5053;BME280;2545;50.892;5.740;2023-03-18T04:59:10;56257.19;;;-142.21;100.00
5053;BME280;2545;50.892;5.740;2023-03-18T05:01:36;56272.88;;;-142.21;100.00
5053;BME280;2545;50.892;5.740;2023-03-18T05:04:02;56235.63;;;-142.21;100.00
5053;BME280;2545;50.892;5.740;2023-03-18T05:06:29;56221.91;;;-142.21;100.00
5053;BME280;2545;50.892;5.740;2023-03-18T05:08:56;56233.66;;;-142.21;100.00
5053;BME280;2545;50.892;5.740;2023-03-18T05:11:22;56223.84;;;-142.21;100.00
5053;BME280;2545;50.892;5.740;2023-03-18T05:13:47;56216.00;;;-142.21;100.00
5053;BME280;2545;50.892;5.740;2023-03-18T05:16:13;56225.81;;;-142.21;100.00
5053;BME280;2545;50.892;5.740;2023-03-18T05:18:39;56261.13;;;-142.21;100.00
5053;BME280;2545;50.892;5.740;2023-03-18T05:21:06;56200.34;;;-142.21;100.00
5053;BME280;2545;50.892;5.740;2023-03-18T05:23:32;56247.38;;;-142.21;100.00
5053;BME280;2545;50.892;5.740;2023-03-18T05:25:57;56255.22;;;-142.21;100.00
5053;BME280;2545;50.892;5.740;2023-03-18T05:28:23;56251.31;;;-142.21;100.00
5053;BME280;2545;50.892;5.740;2023-03-18T05:30:48;56233.66;;;-142.21;100.00
5053;BME280;2545;50.892;5.740;2023-03-18T05:33:14;56221.91;;;-142.21;100.00
5053;BME280;2545;50.892;5.740;2023-03-18T05:35:39;56261.13;;;-142.21;100.00
5053;BME280;2545;50.892;5.740;2023-03-18T05:38:04;56221.91;;;-142.21;100.00
5053;BME280;2545;50.892;5.740;2023-03-18T05:40:32;56245.44;;;-142.21;100.00
5053;BME280;2545;50.892;5.740;2023-03-18T05:42:58;56223.84;;;-142.21;100.00
5053;BME280;2545;50.892;5.740;2023-03-18T05:45:24;56223.84;;;-142.21;100.00
5053;BME280;2545;50.892;5.740;2023-03-18T05:47:49;56249.34;;;-142.21;100.00
5053;BME280;2545;50.892;5.740;2023-03-18T05:50:36;56239.56;;;-142.21;100.00
5053;BME280;2545;50.892;5.740;2023-03-18T05:53:03;56210.13;;;-142.21;100.00
5053;BME280;2545;50.892;5.740;2023-03-18T05:55:29;56253.28;;;-142.21;100.00
5053;BME280;2545;50.892;5.740;2023-03-18T05:57:58;56259.16;;;-142.21;100.00
5053;BME280;2545;50.892;5.740;2023-03-18T06:00:25;56253.28;;;-142.21;100.00
5053;BME280;2545;50.892;5.740;2023-03-18T06:02:53;56276.81;;;-142.21;100.00
5053;BME280;2545;50.892;5.740;2023-03-18T06:05:19;56225.81;;;-142.21;100.00
5053;BME280;2545;50.892;5.740;2023-03-18T06:07:45;56194.44;;;-142.21;100.00
5053;BME280;2545;50.892;5.740;2023-03-18T06:10:11;56214.06;;;-142.21;100.00
5053;BME280;2545;50.892;5.740;2023-03-18T06:12:37;56225.81;;;-142.21;100.00
5053;BME280;2545;50.892;5.740;2023-03-18T06:15:05;56247.38;;;-142.21;100.00
5053;BME280;2545;50.892;5.740;2023-03-18T06:17:31;56208.16;;;-142.21;100.00
5053;BME280;2545;50.892;5.740;2023-03-18T06:19:56;56261.13;;;-142.21;100.00
5053;BME280;2545;50.892;5.740;2023-03-18T06:22:23;56210.13;;;-142.21;100.00
5053;BME280;2545;50.892;5.740;2023-03-18T06:24:48;56261.13;;;-142.21;100.00
5053;BME280;2545;50.892;5.740;2023-03-18T06:27:14;56239.56;;;-142.21;100.00
5053;BME280;2545;50.892;5.740;2023-03-18T06:29:39;56261.13;;;-142.21;100.00
5053;BME280;2545;50.892;5.740;2023-03-18T06:32:06;56255.22;;;-142.21;100.00
5053;BME280;2545;50.892;5.740;2023-03-18T06:34:32;56251.31;;;-142.21;100.00
5053;BME280;2545;50.892;5.740;2023-03-18T06:36:59;56198.38;;;-142.21;100.00
5053;BME280;2545;50.892;5.740;2023-03-18T06:39:25;56241.50;;;-142.21;100.00
5053;BME280;2545;50.892;5.740;2023-03-18T06:41:52;56241.50;;;-142.21;100.00
5053;BME280;2545;50.892;5.740;2023-03-18T06:44:19;56221.91;;;-142.21;100.00
5053;BME280;2545;50.892;5.740;2023-03-18T06:46:45;56229.75;;;-142.21;100.00
5053;BME280;2545;50.892;5.740;2023-03-18T06:49:10;56243.47;;;-142.21;100.00
5053;BME280;2545;50.892;5.740;2023-03-18T06:51:36;56231.72;;;-142.21;100.00
5053;BME280;2545;50.892;5.740;2023-03-18T06:54:02;56245.44;;;-142.21;100.00
5053;BME280;2545;50.892;5.740;2023-03-18T06:56:27;56229.75;;;-142.21;100.00
5053;BME280;2545;50.892;5.740;2023-03-18T06:58:52;56231.72;;;-142.21;100.00
5053;BME280;2545;50.892;5.740;2023-03-18T07:01:18;56233.66;;;-142.21;100.00
5053;BME280;2545;50.892;5.740;2023-03-18T07:03:45;56247.38;;;-142.21;100.00
5053;BME280;2545;50.892;5.740;2023-03-18T07:06:10;56233.66;;;-142.21;100.00
5053;BME280;2545;50.892;5.740;2023-03-18T07:08:36;56217.97;;;-142.21;100.00
5053;BME280;2545;50.892;5.740;2023-03-18T07:11:02;56251.31;;;-142.21;100.00
5053;BME280;2545;50.892;5.740;2023-03-18T07:13:27;56268.97;;;-142.21;100.00
5053;BME280;2545;50.892;5.740;2023-03-18T07:15:53;56219.94;;;-142.21;100.00
5053;BME280;2545;50.892;5.740;2023-03-18T07:18:20;56261.13;;;-142.21;100.00
5053;BME280;2545;50.892;5.740;2023-03-18T07:20:46;56233.66;;;-142.21;100.00
5053;BME280;2545;50.892;5.740;2023-03-18T07:23:11;56235.63;;;-142.21;100.00
5053;BME280;2545;50.892;5.740;2023-03-18T07:25:36;56286.63;;;-142.21;100.00
5053;BME280;2545;50.892;5.740;2023-03-18T07:28:02;56253.28;;;-142.21;100.00
5053;BME280;2545;50.892;5.740;2023-03-18T07:30:29;56249.34;;;-142.21;100.00
5053;BME280;2545;50.892;5.740;2023-03-18T07:32:54;56237.59;;;-142.21;100.00
5053;BME280;2545;50.892;5.740;2023-03-18T07:35:20;56233.66;;;-142.21;100.00
5053;BME280;2545;50.892;5.740;2023-03-18T07:37:46;56257.19;;;-142.21;100.00
5053;BME280;2545;50.892;5.740;2023-03-18T07:40:12;56229.75;;;-142.21;100.00
5053;BME280;2545;50.892;5.740;2023-03-18T07:42:38;56231.72;;;-142.21;100.00
5053;BME280;2545;50.892;5.740;2023-03-18T07:45:07;56233.66;;;-142.21;100.00
5053;BME280;2545;50.892;5.740;2023-03-18T07:47:32;56255.22;;;-142.21;99.93
5053;BME280;2545;50.892;5.740;2023-03-18T07:49:58;56272.88;;;-142.21;97.78
5053;BME280;2545;50.892;5.740;2023-03-18T07:52:24;56225.81;;;-142.21;94.82
5053;BME280;2545;50.892;5.740;2023-03-18T07:54:50;56202.28;;;-142.21;93.77
5053;BME280;2545;50.892;5.740;2023-03-18T07:57:15;56231.72;;;-142.21;91.75
5053;BME280;2545;50.892;5.740;2023-03-18T07:59:41;56190.53;;;-142.21;91.95
5053;BME280;2545;50.892;5.740;2023-03-18T08:02:06;56216.00;;;-142.21;91.77
5053;BME280;2545;50.892;5.740;2023-03-18T08:04:32;56237.59;;;-142.21;90.55
5053;BME280;2545;50.892;5.740;2023-03-18T08:06:59;56196.41;;;-142.21;89.94
5053;BME280;2545;50.892;5.740;2023-03-18T08:09:25;56219.94;;;-142.21;88.57
5053;BME280;2545;50.892;5.740;2023-03-18T08:11:52;56188.56;;;-142.21;85.67
5053;BME280;2545;50.892;5.740;2023-03-18T08:14:17;56217.97;;;-142.21;85.01
5053;BME280;2545;50.892;5.740;2023-03-18T08:16:43;56202.28;;;-142.21;82.59
5053;BME280;2545;50.892;5.740;2023-03-18T08:19:08;56229.75;;;-142.21;81.17
5053;BME280;2545;50.892;5.740;2023-03-18T08:21:33;56217.97;;;-142.21;79.41
5053;BME280;2545;50.892;5.740;2023-03-18T08:23:59;56210.13;;;-142.21;79.25
5053;BME280;2545;50.892;5.740;2023-03-18T08:26:24;56202.28;;;-142.21;79.59
5053;BME280;2545;50.892;5.740;2023-03-18T08:28:50;56229.75;;;-142.21;79.09
5053;BME280;2545;50.892;5.740;2023-03-18T08:31:15;56170.91;;;-142.21;78.90
5053;BME280;2545;50.892;5.740;2023-03-18T08:33:41;56206.22;;;-142.21;78.30
5053;BME280;2545;50.892;5.740;2023-03-18T08:36:07;56210.13;;;-142.21;78.64
5053;BME280;2545;50.892;5.740;2023-03-18T08:38:33;56194.44;;;-142.21;77.65
5053;BME280;2545;50.892;5.740;2023-03-18T08:40:59;56190.53;;;-142.21;78.18
5053;BME280;2545;50.892;5.740;2023-03-18T08:43:24;56182.69;;;-142.21;79.24
5053;BME280;2545;50.892;5.740;2023-03-18T08:45:54;56217.97;;;-142.21;78.31
5053;BME280;2545;50.892;5.740;2023-03-18T08:48:21;56196.41;;;-142.21;78.84
5053;BME280;2545;50.892;5.740;2023-03-18T08:50:47;56247.38;;;-142.21;78.40
5053;BME280;2545;50.892;5.740;2023-03-18T08:53:12;56194.44;;;-142.21;78.07
5053;BME280;2545;50.892;5.740;2023-03-18T08:55:38;56204.25;;;-142.21;77.74
5053;BME280;2545;50.892;5.740;2023-03-18T08:58:04;56206.22;;;-142.21;77.29
5053;BME280;2545;50.892;5.740;2023-03-18T09:00:31;56202.28;;;-142.21;77.26
5053;BME280;2545;50.892;5.740;2023-03-18T09:02:57;56214.06;;;-142.21;75.65
5053;BME280;2545;50.892;5.740;2023-03-18T09:05:22;56227.78;;;-142.21;75.81
5053;BME280;2545;50.892;5.740;2023-03-18T09:07:49;56198.38;;;-142.21;76.29
5053;BME280;2545;50.892;5.740;2023-03-18T09:10:15;56178.75;;;-142.21;73.70
5053;BME280;2545;50.892;5.740;2023-03-18T09:12:42;56208.16;;;-142.21;72.01
5053;BME280;2545;50.892;5.740;2023-03-18T09:15:09;56188.56;;;-142.21;72.90
5053;BME280;2545;50.892;5.740;2023-03-18T09:17:36;56225.81;;;-142.21;73.13
5053;BME280;2545;50.892;5.740;2023-03-18T09:20:05;56192.50;;;-142.21;72.28
5053;BME280;2545;50.892;5.740;2023-03-18T09:22:31;56210.13;;;-142.21;72.85
5053;BME280;2545;50.892;5.740;2023-03-18T09:24:56;56172.88;;;-142.21;73.07
5053;BME280;2545;50.892;5.740;2023-03-18T09:27:22;56165.03;;;-142.21;71.56
5053;BME280;2545;50.892;5.740;2023-03-18T09:29:47;56182.69;;;-142.21;70.77
5053;BME280;2545;50.892;5.740;2023-03-18T09:32:13;56202.28;;;-142.21;70.52
5053;BME280;2545;50.892;5.740;2023-03-18T09:34:38;56194.44;;;-142.21;69.75
5053;BME280;2545;50.892;5.740;2023-03-18T09:37:03;56176.78;;;-142.21;67.92
5053;BME280;2545;50.892;5.740;2023-03-18T09:39:29;56184.66;;;-142.21;66.07
5053;BME280;2545;50.892;5.740;2023-03-18T09:42:27;56180.72;;;-142.21;62.96
5053;BME280;2545;50.892;5.740;2023-03-18T09:45:03;56159.16;;;-142.21;64.03
5053;BME280;2545;50.892;5.740;2023-03-18T09:52:46;56208.16;;;-142.21;60.63
5053;BME280;2545;50.892;5.740;2023-03-18T09:57:56;56159.16;;;-142.21;56.25
5053;BME280;2545;50.892;5.740;2023-03-18T10:00:28;56117.97;;;-142.21;53.59
5053;BME280;2545;50.892;5.740;2023-03-18T10:03:03;56133.66;;;-142.21;53.00
5053;BME280;2545;50.892;5.740;2023-03-18T10:05:33;56167.00;;;-142.21;53.39
5053;BME280;2545;50.892;5.740;2023-03-18T10:08:06;56151.31;;;-142.21;54.30
5053;BME280;2545;50.892;5.740;2023-03-18T10:10:39;56155.22;;;-142.21;55.01
5053;BME280;2545;50.892;5.740;2023-03-18T10:13:24;56151.31;;;-142.21;53.89
5053;BME280;2545;50.892;5.740;2023-03-18T10:15:54;56106.22;;;-142.21;51.62
5053;BME280;2545;50.892;5.740;2023-03-18T10:18:26;56157.19;;;-142.21;48.13
5053;BME280;2545;50.892;5.740;2023-03-18T10:24:05;56106.22;;;-142.21;50.01
5053;BME280;2545;50.892;5.740;2023-03-18T10:27:01;56155.22;;;-142.21;48.98
5053;BME280;2545;50.892;5.740;2023-03-18T10:32:42;56176.78;;;-142.21;50.93
5053;BME280;2545;50.892;5.740;2023-03-18T10:35:39;56174.84;;;-142.21;54.65
5053;BME280;2545;50.892;5.740;2023-03-18T10:38:17;56123.84;;;-142.21;54.92
5053;BME280;2545;50.892;5.740;2023-03-18T10:40:42;56116.00;;;-142.21;55.29
5053;BME280;2545;50.892;5.740;2023-03-18T10:43:17;56170.91;;;-142.21;56.09
5053;BME280;2545;50.892;5.740;2023-03-18T10:45:45;56149.34;;;-142.21;55.58
5053;BME280;2545;50.892;5.740;2023-03-18T10:48:27;56167.00;;;-142.21;56.26
5053;BME280;2545;50.892;5.740;2023-03-18T10:51:08;56149.34;;;-142.21;56.60
5053;BME280;2545;50.892;5.740;2023-03-18T10:53:42;56153.28;;;-142.21;56.92
5053;BME280;2545;50.892;5.740;2023-03-18T10:56:12;56176.78;;;-142.21;56.89
5053;BME280;2545;50.892;5.740;2023-03-18T10:58:39;56188.56;;;-142.21;55.78
5053;BME280;2545;50.892;5.740;2023-03-18T11:01:05;56145.44;;;-142.21;55.77
5053;BME280;2545;50.892;5.740;2023-03-18T11:03:35;56151.31;;;-142.21;54.14
5053;BME280;2545;50.892;5.740;2023-03-18T11:06:03;56168.97;;;-142.21;53.61
5053;BME280;2545;50.892;5.740;2023-03-18T11:08:38;56163.06;;;-142.21;53.74
5053;BME280;2545;50.892;5.740;2023-03-18T11:13:45;56161.13;;;-142.21;52.86
5053;BME280;2545;50.892;5.740;2023-03-18T11:16:20;56167.00;;;-142.21;53.69
5053;BME280;2545;50.892;5.740;2023-03-18T11:18:48;56178.75;;;-142.21;54.26
5053;BME280;2545;50.892;5.740;2023-03-18T11:21:15;56145.44;;;-142.21;55.17
5053;BME280;2545;50.892;5.740;2023-03-18T11:24:19;56125.81;;;-142.21;54.68
5053;BME280;2545;50.892;5.740;2023-03-18T11:27:03;56186.59;;;-142.21;56.16
5053;BME280;2545;50.892;5.740;2023-03-18T11:29:33;56176.78;;;-142.21;58.91
5053;BME280;2545;50.892;5.740;2023-03-18T11:32:00;56194.44;;;-142.21;60.77
5053;BME280;2545;50.892;5.740;2023-03-18T11:34:31;56143.47;;;-142.21;62.12
5053;BME280;2545;50.892;5.740;2023-03-18T11:37:05;56198.38;;;-142.21;62.69
5053;BME280;2545;50.892;5.740;2023-03-18T11:39:34;56188.56;;;-142.21;62.99
5053;BME280;2545;50.892;5.740;2023-03-18T11:42:14;56167.00;;;-142.21;63.23
5053;BME280;2545;50.892;5.740;2023-03-18T11:44:40;56190.53;;;-142.21;63.12
5053;BME280;2545;50.892;5.740;2023-03-18T11:47:12;56190.53;;;-142.21;63.40
5053;BME280;2545;50.892;5.740;2023-03-18T11:49:39;56180.72;;;-142.21;62.62
5053;BME280;2545;50.892;5.740;2023-03-18T11:52:30;56182.69;;;-142.21;63.12
5053;BME280;2545;50.892;5.740;2023-03-18T11:55:32;56167.00;;;-142.21;63.24
5053;BME280;2545;50.892;5.740;2023-03-18T11:58:24;56167.00;;;-142.21;64.53
5053;BME280;2545;50.892;5.740;2023-03-18T12:06:27;56198.38;;;-142.21;65.82
5053;BME280;2545;50.892;5.740;2023-03-18T12:08:58;56200.34;;;-142.21;65.38
5053;BME280;2545;50.892;5.740;2023-03-18T12:17:00;56172.88;;;-142.21;65.54
5053;BME280;2545;50.892;5.740;2023-03-18T12:25:11;56184.66;;;-142.21;62.21
5053;BME280;2545;50.892;5.740;2023-03-18T12:27:56;56186.59;;;-142.21;62.37
5053;BME280;2545;50.892;5.740;2023-03-18T12:33:21;56174.84;;;-142.21;61.85
5053;BME280;2545;50.892;5.740;2023-03-18T12:50:11;56168.97;;;-142.21;51.38
5053;BME280;2545;50.892;5.740;2023-03-18T12:52:41;56114.06;;;-142.21;45.63
5053;BME280;2545;50.892;5.740;2023-03-18T12:57:46;56080.72;;;-142.21;40.32
5053;BME280;2545;50.892;5.740;2023-03-18T13:00:18;56088.56;;;-142.21;39.04
5053;BME280;2545;50.892;5.740;2023-03-18T13:05:48;56084.63;;;-142.21;42.67
5053;BME280;2545;50.892;5.740;2023-03-18T13:10:37;56129.75;;;-142.21;48.04
5053;BME280;2545;50.892;5.740;2023-03-18T13:13:05;56098.38;;;-142.21;49.79
5053;BME280;2545;50.892;5.740;2023-03-18T13:15:37;56149.34;;;-142.21;50.74
5053;BME280;2545;50.892;5.740;2023-03-18T13:18:24;56123.84;;;-142.21;53.30
5053;BME280;2545;50.892;5.740;2023-03-18T13:20:52;56125.81;;;-142.21;54.81
5053;BME280;2545;50.892;5.740;2023-03-18T13:29:07;56186.59;;;-142.21;53.10
5053;BME280;2545;50.892;5.740;2023-03-18T13:42:34;56180.72;;;-142.21;52.24
5053;BME280;2545;50.892;5.740;2023-03-18T13:45:22;56184.66;;;-142.21;52.62
5053;BME280;2545;50.892;5.740;2023-03-18T13:48:16;56143.47;;;-142.21;52.83
5053;BME280;2545;50.892;5.740;2023-03-18T13:50:42;56178.75;;;-142.21;53.05
5053;BME280;2545;50.892;5.740;2023-03-18T13:53:19;56149.34;;;-142.21;53.30
5053;BME280;2545;50.892;5.740;2023-03-18T13:55:51;56182.69;;;-142.21;52.96
5053;BME280;2545;50.892;5.740;2023-03-18T13:58:20;56163.06;;;-142.21;52.91
5053;BME280;2545;50.892;5.740;2023-03-18T14:05:49;56116.00;;;-142.21;40.17
5053;BME280;2545;50.892;5.740;2023-03-18T14:13:56;56096.41;;;-142.21;38.29
5053;BME280;2545;50.892;5.740;2023-03-18T14:19:24;56110.13;;;-142.21;40.77
5053;BME280;2545;50.892;5.740;2023-03-18T14:24:46;56119.94;;;-142.21;40.41
5053;BME280;2545;50.892;5.740;2023-03-18T14:27:43;56135.63;;;-142.21;42.24
5053;BME280;2545;50.892;5.740;2023-03-18T14:33:03;56127.78;;;-142.21;43.08
5053;BME280;2545;50.892;5.740;2023-03-18T14:35:42;56139.53;;;-142.21;40.71
5053;BME280;2545;50.892;5.740;2023-03-18T14:38:17;56137.59;;;-142.21;40.05
5053;BME280;2545;50.892;5.740;2023-03-18T14:40:46;56110.13;;;-142.21;38.99
5053;BME280;2545;50.892;5.740;2023-03-18T14:43:37;56063.06;;;-142.21;38.33
5053;BME280;2545;50.892;5.740;2023-03-18T14:46:12;56100.31;;;-142.21;38.18